Terminal Aerodrome Forecast
Issued by NWS Chicago, IL

Home | Current Version | Previous Version | Graphics & Text | Print | Product List | Glossary On
Versions: 1 2 3 4 5 6 7 8 9 10 11 12 13 14 15 16 17 18 19 20 21 22 23 24 25
690
FTUS43 KLOT 071140
TAFRFD
TAF
KRFD 071140Z 0712/0812 20013KT P6SM OVC100 WS010/24050KT
     FM071300 23014G21KT P6SM BKN150
     FM072300 25010KT P6SM BKN060
     FM080500 29012G19KT P6SM OVC020
      TEMPO 0806/0810 1 1/2SM -SHSN OVC010=

USA.gov is the U.S. government's official web portal to all federal, state and local government web resources and services.